FW4751 Weather Reports


time (UTC)temp
C
wind
direction
speed
KPH
gust
KPH
rain 1hr
cm
rain 24hr
cm
rain mn
cm
humidity
%
barometer
mb
20260508231503 19 45 6.4 14.5 0.00 0.00 0.00 68 1017.0
20260508231003 19 45 6.4 14.5 0.00 0.00 0.00 67 1017.0
20260508230503 19 45 6.4 12.9 0.00 0.00 0.00 67 1017.1
20260508230003 20 45 4.8 17.7 0.00 0.00 0.00 67 1017.3
20260508225503 20 45 6.4 14.5 0.00 0.00 0.00 67 1017.3
20260508225003 20 338 6.4 20.9 0.00 0.00 0.00 66 1017.4
20260508224503 20 338 4.8 11.3 0.00 0.00 0.00 67 1017.4
20260508224003 20 45 6.4 12.9 0.00 0.00 0.00 66 1017.5
20260508223523 19 45 6.4 12.9 0.00 0.00 0.00 67 1017.5
20260508223003 19 45 6.4 16.1 0.00 0.00 0.00 69 1017.5
20260508222503 19 45 4.8 16.1 0.00 0.00 0.00 69 1017.7
20260508222023 18 45 6.4 16.1 0.00 0.00 0.00 69 1017.9
20260508221503 18 45 4.8 12.9 0.00 0.00 0.00 69 1017.9
20260508221003 18 45 6.4 17.7 0.00 0.00 0.00 69 1018.1
20260508220503 18 45 4.8 14.5 0.00 0.00 0.00 69 1018.0
20260508220003 18 45 4.8 12.9 0.00 0.00 0.00 70 1018.0
20260508215503 18 45 6.4 14.5 0.00 0.00 0.00 70 1018.1
20260508215023 18 45 4.8 12.9 0.00 0.00 0.00 70 1018.1
20260508214503 18 68 6.4 14.5 0.00 0.00 0.00 70 1018.3
20260508214003 18 45 6.4 14.5 0.00 0.00 0.00 69 1018.3
20260508213543 18 45 4.8 14.5 0.00 0.00 0.00 69 1018.3
20260508213003 18 45 6.4 12.9 0.00 0.00 0.00 69 1018.4
20260508212503 18 45 4.8 12.9 0.00 0.00 0.00 71 1018.5
20260508212003 18 45 6.4 14.5 0.00 0.00 0.00 70 1018.6
20260508211504 18 45 6.4 16.1 0.00 0.00 0.00 69 1018.6
20260508211023 18 45 6.4 14.5 0.00 0.00 0.00 71 1018.6
20260508210503 18 45 4.8 11.3 0.00 0.00 0.00 71 1018.8
20260508210003 18 68 6.4 14.5 0.00 0.00 0.00 72 1018.8
20260508205503 18 45 4.8 14.5 0.00 0.00 0.00 72 1019.0
20260508205023 17 45 6.4 14.5 0.00 0.00 0.00 73 1019.0
20260508204503 17 68 6.4 17.7 0.00 0.00 0.00 74 1019.0
20260508204003 17 45 6.4 16.1 0.00 0.00 0.00 73 1019.1
20260508203503 17 68 6.4 16.1 0.00 0.00 0.00 73 1019.1
20260508203022 17 45 4.8 12.9 0.00 0.00 0.00 74 1019.2
20260508202503 17 45 6.4 14.5 0.00 0.00 0.00 73 1019.3
20260508202003 17 68 6.4 14.5 0.00 0.00 0.00 73 1019.2
20260508201523 17 45 4.8 12.9 0.00 0.00 0.00 74 1019.2
20260508201003 17 45 6.4 14.5 0.00 0.00 0.00 73 1019.2
20260508200505 17 45 6.4 12.9 0.00 0.00 0.00 74 1019.3
20260508200025 17 45 6.4 14.5 0.00 0.00 0.00 74 1019.2
20260508195505 17 45 4.8 12.9 0.00 0.00 0.00 74 1019.2
20260508195005 17 45 6.4 12.9 0.00 0.00 0.00 74 1019.3
20260508194545 17 45 6.4 16.1 0.00 0.00 0.00 74 1019.3
20260508194025 18 45 6.4 16.1 0.00 0.00 0.00 73 1019.4
20260508193505 18 45 4.8 12.9 0.00 0.00 0.00 74 1019.2
20260508193005 17 45 4.8 14.5 0.00 0.00 0.00 74 1019.4
20260508192505 17 68 4.8 12.9 0.00 0.00 0.00 75 1019.5
20260508192005 17 68 6.4 17.7 0.00 0.00 0.00 74 1019.5
20260508191505 17 45 6.4 17.7 0.00 0.00 0.00 73 1019.4
20260508191025 17 68 4.8 12.9 0.00 0.00 0.00 74 1019.5
20260508190524 17 68 4.8 12.9 0.00 0.00 0.00 74 1019.4
20260508190005 17 68 4.8 12.9 0.00 0.00 0.00 73 1019.5
20260508185525 17 45 6.4 14.5 0.00 0.00 0.00 73 1019.5
20260508185005 17 45 4.8 11.3 0.00 0.00 0.00 73 1019.6
20260508184505 17 68 4.8 9.7 0.00 0.00 0.00 73 1019.7
20260508184005 17 68 4.8 11.3 0.00 0.00 0.00 72 1019.6
20260508183505 17 68 4.8 12.9 0.00 0.00 0.00 72 1019.6
20260508183004 17 68 4.8 12.9 0.00 0.00 0.00 71 1019.6
20260508182505 17 45 4.8 11.3 0.00 0.00 0.00 71 1019.8
20260508182025 17 45 3.2 9.7 0.00 0.00 0.00 71 1019.7
20260508181505 17 68 4.8 11.3 0.00 0.00 0.00 70 1019.7
20260508181005 17 68 3.2 8.0 0.00 0.00 0.00 69 1019.7
20260508180505 17 68 3.2 8.0 0.00 0.00 0.00 68 1019.9
20260508180025 17 68 3.2 8.0 0.00 0.00 0.00 68 1019.7
20260508175505 17 45 3.2 8.0 0.00 0.00 0.00 68 1019.8
20260508175004 17 68 3.2 9.7 0.00 0.00 0.00 68 1019.8
20260508174505 17 68 3.2 9.7 0.00 0.00 0.00 69 1019.7
20260508174005 17 68 3.2 8.0 0.00 0.00 0.00 68 1019.7
20260508173504 17 45 4.8 8.0 0.00 0.00 0.00 66 1019.7
20260508173005 17 68 3.2 8.0 0.00 0.00 0.00 66 1019.7
20260508172505 17 113 1.6 4.8 0.00 0.00 0.00 68 1019.7
20260508172004 17 113 3.2 9.7 0.00 0.00 0.00 68 1019.7
20260508171505 17 113 3.2 6.4 0.00 0.00 0.00 69 1019.7
20260508171004 16 68 3.2 8.0 0.00 0.00 0.00 69 1019.7
20260508170504 16 45 3.2 8.0 0.00 0.00 0.00 69 1019.7
20260508170005 16 45 3.2 6.4 0.00 0.00 0.00 69 1019.7
20260508165504 16 23 1.6 4.8 0.00 0.00 0.00 70 1019.7
20260508165005 16 45 3.2 6.4 0.00 0.00 0.00 70 1019.7
20260508164505 16 45 3.2 6.4 0.00 0.00 0.00 70 1019.7
20260508164004 16 90 1.6 3.2 0.00 0.00 0.00 70 1019.6
20260508163504 15 180 1.6 3.2 0.00 0.00 0.00 71 1019.7
20260508163005 15 113 1.6 3.2 0.00 0.00 0.00 72 1019.7
20260508162505 15 113 1.6 4.8 0.00 0.00 0.00 73 1019.8
20260508162004 14 0.0 3.2 0.00 0.00 0.00 74 1019.7
20260508161545 14 135 1.6 3.2 0.00 0.00 0.00 74 1019.7
20260508161004 13 315 1.6 3.2 0.00 0.00 0.00 75 1019.7
20260508160504 13 45 1.6 3.2 0.00 0.00 0.00 75 1019.8
20260508160005 13 45 1.6 4.8 0.00 0.00 0.00 74 1019.8
20260508155504 14 45 1.6 4.8 0.00 0.00 0.00 74 1019.8
20260508155125 13 45 1.6 3.2 0.00 0.00 0.00 74 1019.8
20260508154505 14 158 1.6 3.2 0.00 0.00 0.00 73 1019.9
20260508154025 13 113 1.6 4.8 0.00 0.00 0.00 75 1019.9
20260508153504 13 45 1.6 6.4 0.00 0.00 0.00 77 1019.8
20260508153004 13 338 1.6 3.2 0.00 0.00 0.00 76 1019.8
20260508152504 13 315 1.6 4.8 0.00 0.00 0.00 77 1019.8
20260508152005 13 45 1.6 6.4 0.00 0.00 0.00 77 1019.9
20260508151524 13 45 1.6 4.8 0.00 0.00 0.00 78 1019.9
20260508151004 12 0 1.6 3.2 0.00 0.00 0.00 79 1019.8
20260508150505 12 203 1.6 3.2 0.00 0.00 0.00 79 1019.9
20260508150005 12 293 1.6 4.8 0.00 0.00 0.00 79 1019.8
20260508145504 12 225 1.6 4.8 0.00 0.00 0.00 79 1019.9
20260508145004 12 225 1.6 4.8 0.00 0.00 0.00 80 1019.9
20260508144524 12 315 1.6 4.8 0.00 0.00 0.00 80 1019.9
20260508144004 12 270 1.6 3.2 0.00 0.00 0.00 80 1019.9
20260508143504 12 248 1.6 6.4 0.00 0.00 0.00 80 1019.9
20260508143004 12 293 1.6 3.2 0.00 0.00 0.00 81 1019.8
20260508142504 12 315 1.6 4.8 0.00 0.00 0.00 81 1019.8
20260508142005 12 315 1.6 3.2 0.00 0.00 0.00 81 1019.8
20260508141504 12 315 1.6 3.2 0.00 0.00 0.00 81 1019.7
20260508141004 12 338 1.6 3.2 0.00 0.00 0.00 82 1019.7
20260508140504 12 45 1.6 4.8 0.00 0.00 0.00 82 1019.6
20260508140024 12 338 3.2 6.4 0.00 0.00 0.00 81 1019.5
20260508135504 12 23 1.6 4.8 0.00 0.00 0.00 82 1019.3
20260508135004 12 45 3.2 6.4 0.00 0.00 0.00 82 1019.4
20260508134505 12 338 1.6 4.8 0.00 0.00 0.00 82 1019.4
20260508134004 12 338 1.6 6.4 0.00 0.00 0.00 82 1019.3
20260508133504 12 45 1.6 3.2 0.00 0.00 0.00 82 1019.2
20260508133004 12 338 1.6 4.8 0.00 0.00 0.00 82 1019.3
20260508132505 12 338 1.6 4.8 0.00 0.00 0.00 82 1019.2
20260508132024 12 45 1.6 4.8 0.00 0.00 0.00 82 1019.2
20260508131504 12 338 1.6 4.8 0.00 0.00 0.00 82 1019.4
20260508131004 12 315 1.6 3.2 0.00 0.00 0.00 82 1019.2
20260508130504 12 0.0 3.2 0.00 0.00 0.00 82 1019.2
20260508130024 12 0.0 1.6 0.00 0.00 0.00 82 1019.1
20260508125504 12 45 1.6 3.2 0.00 0.00 0.00 82 1019.1
20260508125004 12 0.0 3.2 0.00 0.00 0.00 82 1019.1
20260508124524 12 0.0 1.6 0.00 0.00 0.00 82 1019.1
20260508124004 12 0.0 3.2 0.00 0.00 0.00 82 1019.1
20260508123504 12 45 1.6 3.2 0.00 0.00 0.00 82 1019.2
20260508123004 12 0.0 1.6 0.00 0.00 0.00 82 1019.1
20260508122504 12 338 1.6 4.8 0.00 0.00 0.00 82 1019.2
20260508122004 12 0.0 1.6 0.00 0.00 0.00 82 1019.1
20260508121504 12 0.0 3.2 0.00 0.00 0.00 82 1019.2
20260508121004 12 338 1.6 4.8 0.00 0.00 0.00 82 1019.1
20260508120503 12 338 1.6 6.4 0.00 0.00 0.00 82 1019.3
20260508120004 12 338 1.6 4.8 0.00 0.00 0.00 82 1019.2
20260508115503 12 338 3.2 6.4 0.00 0.00 0.00 82 1019.2
20260508115004 12 338 3.2 6.4 0.00 0.00 0.00 82 1019.2
20260508114503 12 338 1.6 3.2 0.00 0.00 0.00 82 1019.2
20260508114009 12 338 1.6 4.8 0.00 0.00 0.00 82 1019.2
20260508113524 12 338 1.6 4.8 0.00 0.00 0.00 82 1019.2
20260508113004 12 338 1.6 4.8 0.00 0.00 0.00 82 1019.1
20260508112503 12 338 1.6 4.8 0.00 0.00 0.00 82 1019.1
20260508112004 12 338 3.2 6.4 0.00 0.00 0.00 82 1019.0
20260508111503 12 315 3.2 6.4 0.00 0.00 0.00 82 1019.0
20260508111003 12 338 1.6 6.4 0.00 0.00 0.00 82 1019.1
20260508110504 12 315 3.2 6.4 0.00 0.00 0.00 82 1019.1
20260508110003 12 338 1.6 6.4 0.00 0.00 0.00 83 1019.0
20260508105504 12 315 1.6 4.8 0.00 0.00 0.00 83 1019.1
20260508105003 12 315 1.6 6.4 0.00 0.00 0.00 83 1019.1
20260508104504 12 338 1.6 4.8 0.00 0.00 0.00 83 1019.0
20260508104004 12 315 1.6 3.2 0.00 0.00 0.00 83 1019.0
20260508103503 12 315 1.6 3.2 0.00 0.00 0.00 83 1019.0
20260508103003 12 45 1.6 4.8 0.00 0.00 0.00 83 1019.1
20260508102503 12 338 1.6 4.8 0.00 0.00 0.00 83 1019.1
20260508102003 12 315 1.6 4.8 0.00 0.00 0.00 83 1019.0
20260508101503 12 315 1.6 3.2 0.00 0.00 0.00 83 1019.0
20260508101003 12 45 1.6 3.2 0.00 0.00 0.00 83 1019.0
20260508100503 12 45 1.6 4.8 0.00 0.00 0.00 83 1018.9
20260508100004 12 45 1.6 4.8 0.00 0.00 0.00 83 1018.8
20260508095503 12 338 1.6 4.8 0.00 0.00 0.00 83 1018.8
20260508095003 12 338 1.6 6.4 0.00 0.00 0.00 83 1018.9
20260508094523 12 45 3.2 6.4 0.00 0.00 0.00 83 1018.9
20260508094003 12 338 3.2 6.4 0.00 0.00 0.00 83 1018.8
20260508093523 12 45 3.2 6.4 0.00 0.00 0.00 83 1018.8
20260508093003 12 338 1.6 4.8 0.00 0.00 0.00 83 1018.9
20260508092503 12 338 1.6 6.4 0.00 0.00 0.00 83 1018.9
20260508092003 12 45 1.6 4.8 0.00 0.00 0.00 83 1018.9
20260508091523 12 45 1.6 6.4 0.00 0.00 0.00 83 1018.9
20260508091003 12 338 1.6 6.4 0.00 0.00 0.00 83 1018.9
20260508090523 12 23 3.2 6.4 0.00 0.00 0.00 84 1018.9
20260508090003 12 315 1.6 6.4 0.00 0.00 0.00 84 1018.8
20260508085504 12 338 1.6 3.2 0.00 0.00 0.00 84 1018.9
20260508085003 12 338 1.6 4.8 0.00 0.00 0.00 84 1019.0
20260508084504 12 338 1.6 4.8 0.00 0.00 0.00 84 1019.0
20260508084003 12 45 1.6 4.8 0.00 0.00 0.00 84 1018.9
20260508083523 12 45 1.6 4.8 0.00 0.00 0.00 84 1019.0
20260508083003 12 315 1.6 3.2 0.00 0.00 0.00 85 1019.0
20260508082523 12 315 1.6 4.8 0.00 0.00 0.00 85 1019.1
20260508082003 12 338 1.6 4.8 0.00 0.00 0.00 85 1019.0
20260508081503 12 45 1.6 6.4 0.00 0.00 0.00 85 1019.1
20260508081003 12 338 3.2 6.4 0.00 0.00 0.00 85 1019.1
20260508080523 12 338 3.2 8.0 0.00 0.00 0.00 86 1019.2
20260508080003 12 45 1.6 6.4 0.00 0.00 0.00 86 1019.1
20260508075503 12 315 3.2 8.0 0.00 0.00 0.00 87 1019.1
20260508075003 12 338 1.6 8.0 0.00 0.00 0.00 87 1019.1
20260508074503 12 315 1.6 6.4 0.00 0.00 0.00 88 1019.1
20260508074003 12 315 1.6 4.8 0.00 0.00 0.00 88 1019.0
20260508073523 12 315 1.6 4.8 0.00 0.00 0.00 89 1019.0
20260508073003 12 315 1.6 6.4 0.00 0.00 0.00 89 1019.0
20260508072503 12 338 1.6 4.8 0.00 0.00 0.00 89 1018.9
20260508072003 11 338 1.6 4.8 0.00 0.00 0.00 89 1019.0
20260508071523 11 315 1.6 4.8 0.00 0.00 0.00 89 1018.9
20260508071003 11 315 1.6 4.8 0.00 0.00 0.00 89 1019.0
20260508070503 11 315 1.6 3.2 0.00 0.00 0.00 89 1019.0
20260508070025 11 338 1.6 3.2 0.00 0.00 0.00 88 1019.0
20260508065503 11 315 1.6 1.6 0.00 0.00 0.00 88 1019.0
20260508065003 11 0.0 1.6 0.00 0.00 0.00 88 1019.0
20260508064503 11 0.0 1.6 0.00 0.00 0.00 88 1019.0
20260508064003 11 0.0 3.2 0.00 0.00 0.00 87 1019.0
20260508063503 11 0.0 1.6 0.00 0.00 0.00 87 1019.0
20260508063003 11 0.0 3.2 0.00 0.00 0.00 88 1019.1
20260508062503 11 293 1.6 3.2 0.00 0.00 0.00 87 1019.0
20260508062003 11 0.0 1.6 0.00 0.00 0.00 87 1019.0
20260508061523 11 0.0 3.2 0.00 0.00 0.00 87 1018.9
20260508061003 11 0.0 3.2 0.00 0.00 0.00 87 1018.8
20260508060503 11 0.0 1.6 0.00 0.00 0.00 87 1018.7
20260508060003 11 0.0 1.6 0.00 0.00 0.00 87 1018.7
20260508055503 12 0.0 1.6 0.00 0.00 0.00 86 1018.7
20260508055004 12 0.0 1.6 0.00 0.00 0.00 86 1018.7
20260508054505 12 0.0 1.6 0.00 0.00 0.00 86 1018.6
20260508054005 12 0.0 3.2 0.00 0.00 0.00 86 1018.6
20260508053505 12 0 1.6 3.2 0.00 0.00 0.00 86 1018.7
20260508053004 12 0.0 1.6 0.00 0.00 0.00 86 1018.6
20260508052504 12 45 1.6 3.2 0.00 0.00 0.00 86 1018.5
20260508052005 12 0.0 3.2 0.00 0.00 0.00 86 1018.6
20260508051504 12 0.0 3.2 0.00 0.00 0.00 86 1018.5
20260508051005 12 45 1.6 3.2 0.00 0.00 0.00 86 1018.6
20260508050504 12 45 1.6 3.2 0.00 0.00 0.00 85 1018.5
20260508050004 12 45 1.6 3.2 0.00 0.00 0.00 85 1018.4
20260508045505 12 0.0 3.2 0.00 0.00 0.00 85 1018.4
20260508045004 12 45 1.6 4.8 0.00 0.00 0.00 85 1018.4
20260508044505 12 45 3.2 4.8 0.00 0.00 0.00 85 1018.4
20260508044024 13 45 1.6 4.8 0.00 0.00 0.00 85 1018.4
20260508043525 13 45 1.6 4.8 0.00 0.00 0.00 85 1018.3
20260508043005 13 45 1.6 4.8 0.00 0.00 0.00 84 1018.3
20260508042525 13 45 1.6 4.8 0.00 0.00 0.00 84 1018.3
20260508042005 13 45 1.6 4.8 0.00 0.00 0.00 83 1018.2
20260508041505 13 45 1.6 6.4 0.00 0.00 0.00 83 1018.2
20260508041005 13 45 3.2 9.7 0.00 0.00 0.00 83 1018.2
20260508040504 13 45 4.8 9.7 0.00 0.00 0.00 82 1018.0
20260508040005 13 45 3.2 9.7 0.00 0.00 0.00 82 1018.0
20260508035504 13 45 3.2 8.0 0.00 0.00 0.00 81 1017.9
20260508035004 14 45 1.6 4.8 0.00 0.00 0.00 82 1017.9
20260508034505 14 45 1.6 4.8 0.00 0.00 0.00 81 1017.8
20260508034004 14 45 3.2 6.4 0.00 0.00 0.00 81 1017.8
20260508033525 14 45 1.6 6.4 0.00 0.00 0.00 81 1017.7
20260508033004 15 45 1.6 3.2 0.00 0.00 0.00 81 1017.6
20260508032504 15 68 1.6 3.2 0.00 0.00 0.00 81 1017.6
20260508032005 15 68 1.6 3.2 0.00 0.00 0.00 81 1017.6
20260508031505 15 0.0 3.2 0.00 0.00 0.00 81 1017.5
20260508031004 15 68 1.6 4.8 0.00 0.00 0.00 81 1017.5
20260508030504 15 68 1.6 4.8 0.00 0.00 0.00 80 1017.4
20260508030005 15 45 1.6 4.8 0.00 0.00 0.00 80 1017.4
20260508025504 15 45 3.2 4.8 0.00 0.00 0.00 80 1017.3
20260508025004 15 45 1.6 9.7 0.00 0.00 0.00 80 1017.3
20260508024505 15 45 1.6 6.4 0.00 0.00 0.00 80 1017.3
20260508024005 16 45 3.2 8.0 0.00 0.00 0.00 79 1017.3
20260508023504 16 45 3.2 8.0 0.00 0.00 0.00 79 1017.2
20260508023005 16 45 3.2 6.4 0.00 0.00 0.00 78 1017.2
20260508022524 16 45 3.2 8.0 0.00 0.00 0.00 78 1017.1
20260508022004 16 45 3.2 8.0 0.00 0.00 0.00 78 1017.2
20260508021505 16 45 3.2 6.4 0.00 0.00 0.00 77 1017.2
20260508021004 16 45 3.2 8.0 0.00 0.00 0.00 77 1017.2
20260508020525 16 45 3.2 6.4 0.00 0.00 0.00 77 1017.2
20260508020004 16 45 3.2 8.0 0.00 0.00 0.00 77 1017.2
20260508015504 16 45 4.8 12.9 0.00 0.00 0.00 76 1017.2
20260508015005 16 45 3.2 11.3 0.00 0.00 0.00 76 1017.2
20260508014504 16 45 4.8 11.3 0.00 0.00 0.00 76 1017.1
20260508014004 16 45 6.4 14.5 0.00 0.00 0.00 75 1017.1
20260508013505 17 45 6.4 12.9 0.00 0.00 0.00 75 1017.3
20260508013004 17 45 4.8 12.9 0.00 0.00 0.00 75 1017.0
20260508012504 17 45 4.8 14.5 0.00 0.00 0.00 75 1017.0
20260508012004 17 45 6.4 16.1 0.00 0.00 0.00 75 1017.1
20260508011504 17 45 6.4 12.9 0.00 0.00 0.00 74 1017.2
20260508011004 17 45 4.8 11.3 0.00 0.00 0.00 74 1017.1
20260508010504 17 45 6.4 17.7 0.00 0.00 0.00 73 1017.0
20260508010004 17 45 6.4 14.5 0.00 0.00 0.00 72 1017.1
20260508005504 17 45 6.4 12.9 0.00 0.00 0.00 72 1017.2
20260508005004 17 45 4.8 16.1 0.00 0.00 0.00 71 1017.3
20260508004504 18 45 8.0 17.7 0.00 0.00 0.00 70 1017.4
20260508004004 18 23 6.4 12.9 0.00 0.00 0.00 69 1017.3
20260508003504 18 45 4.8 12.9 0.00 0.00 0.00 69 1017.3
20260508003006 18 338 4.8 16.1 0.00 0.00 0.00 69 1017.2
20260508002504 18 45 4.8 14.5 0.00 0.00 0.00 69 1017.2
20260508002004 18 45 6.4 16.1 0.00 0.00 0.00 68 1017.1
20260508001504 19 45 6.4 14.5 0.00 0.00 0.00 67 1017.1
20260508001004 19 45 4.8 12.9 0.00 0.00 0.00 67 1017.2
20260508000504 19 338 4.8 16.1 0.00 0.00 0.00 67 1017.2
20260508000004 19 45 4.8 12.9 0.00 0.00 0.00 66 1017.2
20260507235504 19 338 4.8 12.9 0.00 0.00 0.00 66 1017.2
20260507235024 19 45 6.4 14.5 0.00 0.00 0.00 65 1017.2
20260507234504 20 45 4.8 11.3 0.00 0.00 0.00 64 1017.2
20260507234005 20 338 4.8 12.9 0.00 0.00 0.00 66 1017.3
20260507233504 19 45 6.4 14.5 0.00 0.00 0.00 66 1017.2
20260507233004 19 338 3.2 11.3 0.00 0.00 0.00 67 1017.2
20260507232504 19 45 6.4 12.9 0.00 0.00 0.00 67 1017.3
20260507232024 20 45 4.8 11.3 0.00 0.00 0.00 67 1017.3